sensor_id;sensor_type;location;lat;lon;timestamp;temperature;humidity
27896;DHT22;15241;48.374;10.876;2023-01-29T00:04:19;2.00;99.90
27896;DHT22;15241;48.374;10.876;2023-01-29T00:09:19;2.00;99.90
27896;DHT22;15241;48.374;10.876;2023-01-29T00:14:17;1.90;99.90
27896;DHT22;15241;48.374;10.876;2023-01-29T00:19:16;1.80;99.90
27896;DHT22;15241;48.374;10.876;2023-01-29T00:24:16;1.80;99.90
27896;DHT22;15241;48.374;10.876;2023-01-29T00:29:15;1.80;99.90
27896;DHT22;15241;48.374;10.876;2023-01-29T00:34:14;1.80;99.90
27896;DHT22;15241;48.374;10.876;2023-01-29T00:39:13;1.80;99.90
27896;DHT22;15241;48.374;10.876;2023-01-29T00:44:12;1.80;99.90
27896;DHT22;15241;48.374;10.876;2023-01-29T00:49:11;1.90;99.90
27896;DHT22;15241;48.374;10.876;2023-01-29T00:54:10;1.80;99.90
27896;DHT22;15241;48.374;10.876;2023-01-29T00:59:13;1.70;99.90
27896;DHT22;15241;48.374;10.876;2023-01-29T01:04:12;1.70;99.90
27896;DHT22;15241;48.374;10.876;2023-01-29T01:09:11;1.70;99.90
27896;DHT22;15241;48.374;10.876;2023-01-29T01:14:10;1.60;99.90
27896;DHT22;15241;48.374;10.876;2023-01-29T01:19:10;1.60;99.90
27896;DHT22;15241;48.374;10.876;2023-01-29T01:24:09;1.60;99.90
27896;DHT22;15241;48.374;10.876;2023-01-29T01:29:08;1.50;99.90
27896;DHT22;15241;48.374;10.876;2023-01-29T01:34:06;1.60;99.90
27896;DHT22;15241;48.374;10.876;2023-01-29T01:39:05;1.60;99.90
27896;DHT22;15241;48.374;10.876;2023-01-29T01:44:05;1.60;99.90
27896;DHT22;15241;48.374;10.876;2023-01-29T01:49:07;1.70;99.90
27896;DHT22;15241;48.374;10.876;2023-01-29T01:54:08;1.60;99.90
27896;DHT22;15241;48.374;10.876;2023-01-29T01:59:09;1.60;99.90
27896;DHT22;15241;48.374;10.876;2023-01-29T02:04:11;1.60;99.90
27896;DHT22;15241;48.374;10.876;2023-01-29T02:09:14;1.70;99.90
27896;DHT22;15241;48.374;10.876;2023-01-29T02:14:13;1.70;99.90
27896;DHT22;15241;48.374;10.876;2023-01-29T02:19:15;1.70;99.90
27896;DHT22;15241;48.374;10.876;2023-01-29T02:24:59;1.60;99.90
27896;DHT22;15241;48.374;10.876;2023-01-29T02:30:02;1.70;99.90
27896;DHT22;15241;48.374;10.876;2023-01-29T02:35:09;1.70;99.90
27896;DHT22;15241;48.374;10.876;2023-01-29T02:40:14;1.80;99.90
27896;DHT22;15241;48.374;10.876;2023-01-29T02:45:16;1.70;99.90
27896;DHT22;15241;48.374;10.876;2023-01-29T02:50:18;1.70;99.90
27896;DHT22;15241;48.374;10.876;2023-01-29T02:55:20;1.80;99.90
27896;DHT22;15241;48.374;10.876;2023-01-29T03:05:33;1.80;99.90
27896;DHT22;15241;48.374;10.876;2023-01-29T03:10:36;1.70;99.90
27896;DHT22;15241;48.374;10.876;2023-01-29T03:15:38;1.80;99.90
27896;DHT22;15241;48.374;10.876;2023-01-29T03:25:46;1.70;99.90
27896;DHT22;15241;48.374;10.876;2023-01-29T03:30:47;1.80;99.90
27896;DHT22;15241;48.374;10.876;2023-01-29T03:35:49;1.80;99.90
27896;DHT22;15241;48.374;10.876;2023-01-29T03:40:51;1.70;99.90
27896;DHT22;15241;48.374;10.876;2023-01-29T03:45:55;1.70;99.90
27896;DHT22;15241;48.374;10.876;2023-01-29T03:50:56;1.70;99.90
27896;DHT22;15241;48.374;10.876;2023-01-29T04:01:10;1.80;99.90
27896;DHT22;15241;48.374;10.876;2023-01-29T04:06:12;1.80;99.90
27896;DHT22;15241;48.374;10.876;2023-01-29T04:11:14;1.80;99.90
27896;DHT22;15241;48.374;10.876;2023-01-29T04:16:16;1.80;99.90
27896;DHT22;15241;48.374;10.876;2023-01-29T04:21:16;1.70;99.90
27896;DHT22;15241;48.374;10.876;2023-01-29T04:26:34;1.70;99.90
27896;DHT22;15241;48.374;10.876;2023-01-29T04:31:36;1.70;99.90
27896;DHT22;15241;48.374;10.876;2023-01-29T04:41:48;1.70;99.90
27896;DHT22;15241;48.374;10.876;2023-01-29T04:46:51;1.70;99.90
27896;DHT22;15241;48.374;10.876;2023-01-29T04:57:04;1.70;99.90
27896;DHT22;15241;48.374;10.876;2023-01-29T05:02:02;1.70;99.90
27896;DHT22;15241;48.374;10.876;2023-01-29T05:07:03;1.60;99.90
27896;DHT22;15241;48.374;10.876;2023-01-29T05:12:06;1.60;99.90
27896;DHT22;15241;48.374;10.876;2023-01-29T05:22:17;1.60;99.90
27896;DHT22;15241;48.374;10.876;2023-01-29T05:27:19;1.60;99.90
27896;DHT22;15241;48.374;10.876;2023-01-29T05:32:18;1.60;99.90
27896;DHT22;15241;48.374;10.876;2023-01-29T05:37:17;1.60;99.90
27896;DHT22;15241;48.374;10.876;2023-01-29T05:42:16;1.60;99.90
27896;DHT22;15241;48.374;10.876;2023-01-29T05:47:18;1.60;99.90
27896;DHT22;15241;48.374;10.876;2023-01-29T05:52:17;1.70;99.90
27896;DHT22;15241;48.374;10.876;2023-01-29T05:57:16;1.60;99.90
27896;DHT22;15241;48.374;10.876;2023-01-29T06:02:15;1.70;99.90
27896;DHT22;15241;48.374;10.876;2023-01-29T06:07:14;1.70;99.90
27896;DHT22;15241;48.374;10.876;2023-01-29T06:12:13;1.70;99.90
27896;DHT22;15241;48.374;10.876;2023-01-29T06:17:12;1.70;99.90
27896;DHT22;15241;48.374;10.876;2023-01-29T06:22:10;1.70;99.90
27896;DHT22;15241;48.374;10.876;2023-01-29T06:27:09;1.70;99.90
27896;DHT22;15241;48.374;10.876;2023-01-29T06:32:08;1.60;99.90
27896;DHT22;15241;48.374;10.876;2023-01-29T06:37:07;1.60;99.90
27896;DHT22;15241;48.374;10.876;2023-01-29T06:42:06;1.60;99.90
27896;DHT22;15241;48.374;10.876;2023-01-29T06:47:06;1.60;99.90
27896;DHT22;15241;48.374;10.876;2023-01-29T06:52:05;1.60;99.90
27896;DHT22;15241;48.374;10.876;2023-01-29T06:57:04;1.60;99.90
27896;DHT22;15241;48.374;10.876;2023-01-29T07:02:04;1.60;99.90
27896;DHT22;15241;48.374;10.876;2023-01-29T07:07:02;1.70;99.90
27896;DHT22;15241;48.374;10.876;2023-01-29T07:12:02;1.70;99.90
27896;DHT22;15241;48.374;10.876;2023-01-29T07:17:01;1.70;99.90
27896;DHT22;15241;48.374;10.876;2023-01-29T07:22:00;1.70;99.90
27896;DHT22;15241;48.374;10.876;2023-01-29T07:26:59;1.70;99.90
27896;DHT22;15241;48.374;10.876;2023-01-29T07:31:57;1.80;99.90
27896;DHT22;15241;48.374;10.876;2023-01-29T07:36:56;1.80;99.90
27896;DHT22;15241;48.374;10.876;2023-01-29T07:41:55;1.80;99.90
27896;DHT22;15241;48.374;10.876;2023-01-29T07:52:01;1.70;99.90
27896;DHT22;15241;48.374;10.876;2023-01-29T07:57:00;1.70;99.90
27896;DHT22;15241;48.374;10.876;2023-01-29T08:01:59;1.80;99.90
27896;DHT22;15241;48.374;10.876;2023-01-29T08:06:58;1.80;99.90
27896;DHT22;15241;48.374;10.876;2023-01-29T08:11:57;1.80;99.90
27896;DHT22;15241;48.374;10.876;2023-01-29T08:16:56;1.80;99.90
27896;DHT22;15241;48.374;10.876;2023-01-29T08:27:02;1.90;99.90
27896;DHT22;15241;48.374;10.876;2023-01-29T08:32:01;2.00;99.90
27896;DHT22;15241;48.374;10.876;2023-01-29T08:37:00;2.00;99.90
27896;DHT22;15241;48.374;10.876;2023-01-29T08:41:59;2.00;99.90
27896;DHT22;15241;48.374;10.876;2023-01-29T08:46:58;1.90;99.90
27896;DHT22;15241;48.374;10.876;2023-01-29T08:51:57;1.90;99.90
27896;DHT22;15241;48.374;10.876;2023-01-29T08:56:56;2.00;99.90
27896;DHT22;15241;48.374;10.876;2023-01-29T09:01:55;2.00;99.90
27896;DHT22;15241;48.374;10.876;2023-01-29T09:06:54;2.00;99.90
27896;DHT22;15241;48.374;10.876;2023-01-29T09:11:53;2.00;99.90
27896;DHT22;15241;48.374;10.876;2023-01-29T09:16:52;2.00;99.90
27896;DHT22;15241;48.374;10.876;2023-01-29T09:21:50;2.10;99.90
27896;DHT22;15241;48.374;10.876;2023-01-29T09:26:49;2.10;99.90
27896;DHT22;15241;48.374;10.876;2023-01-29T09:31:48;2.10;99.90
27896;DHT22;15241;48.374;10.876;2023-01-29T09:36:47;2.10;99.90
27896;DHT22;15241;48.374;10.876;2023-01-29T09:41:50;2.10;99.90
27896;DHT22;15241;48.374;10.876;2023-01-29T09:46:52;2.20;99.90
27896;DHT22;15241;48.374;10.876;2023-01-29T09:51:55;2.30;99.90
27896;DHT22;15241;48.374;10.876;2023-01-29T09:56:55;2.40;99.90
27896;DHT22;15241;48.374;10.876;2023-01-29T10:02:03;2.50;99.90
27896;DHT22;15241;48.374;10.876;2023-01-29T10:07:13;2.50;99.90
27896;DHT22;15241;48.374;10.876;2023-01-29T10:12:30;2.50;99.90
27896;DHT22;15241;48.374;10.876;2023-01-29T10:17:38;2.50;99.90
27896;DHT22;15241;48.374;10.876;2023-01-29T10:22:50;2.50;99.90
27896;DHT22;15241;48.374;10.876;2023-01-29T10:27:52;2.60;99.90
27896;DHT22;15241;48.374;10.876;2023-01-29T10:32:52;2.60;99.90
27896;DHT22;15241;48.374;10.876;2023-01-29T10:37:53;2.60;99.90
27896;DHT22;15241;48.374;10.876;2023-01-29T10:42:57;2.70;99.90
27896;DHT22;15241;48.374;10.876;2023-01-29T10:48:13;2.70;99.90
27896;DHT22;15241;48.374;10.876;2023-01-29T10:53:21;2.80;99.90
27896;DHT22;15241;48.374;10.876;2023-01-29T11:03:31;2.80;99.90
27896;DHT22;15241;48.374;10.876;2023-01-29T11:08:36;2.90;99.90
27896;DHT22;15241;48.374;10.876;2023-01-29T11:13:38;3.00;99.90
27896;DHT22;15241;48.374;10.876;2023-01-29T11:24:19;3.00;99.90
27896;DHT22;15241;48.374;10.876;2023-01-29T11:29:39;3.00;99.90
27896;DHT22;15241;48.374;10.876;2023-01-29T11:34:57;3.00;99.90
27896;DHT22;15241;48.374;10.876;2023-01-29T11:39:57;3.00;99.90
27896;DHT22;15241;48.374;10.876;2023-01-29T11:44:56;3.00;99.90
27896;DHT22;15241;48.374;10.876;2023-01-29T11:49:56;2.70;99.90
27896;DHT22;15241;48.374;10.876;2023-01-29T11:54:58;2.70;99.90
27896;DHT22;15241;48.374;10.876;2023-01-29T12:00:00;2.70;99.90
27896;DHT22;15241;48.374;10.876;2023-01-29T12:05:03;2.80;99.90
27896;DHT22;15241;48.374;10.876;2023-01-29T12:10:04;3.00;99.90
27896;DHT22;15241;48.374;10.876;2023-01-29T12:15:16;3.00;99.90
27896;DHT22;15241;48.374;10.876;2023-01-29T12:20:21;3.00;99.90
27896;DHT22;15241;48.374;10.876;2023-01-29T12:25:28;2.80;99.90
27896;DHT22;15241;48.374;10.876;2023-01-29T12:30:27;2.70;99.90
27896;DHT22;15241;48.374;10.876;2023-01-29T12:35:29;2.70;99.90
27896;DHT22;15241;48.374;10.876;2023-01-29T12:40:31;2.70;99.90
27896;DHT22;15241;48.374;10.876;2023-01-29T12:45:32;2.60;99.90
27896;DHT22;15241;48.374;10.876;2023-01-29T12:50:35;2.70;99.90
27896;DHT22;15241;48.374;10.876;2023-01-29T12:55:37;2.70;99.90
27896;DHT22;15241;48.374;10.876;2023-01-29T13:00:39;2.40;99.90
27896;DHT22;15241;48.374;10.876;2023-01-29T13:05:42;2.60;99.90
27896;DHT22;15241;48.374;10.876;2023-01-29T13:10:43;2.50;99.90
27896;DHT22;15241;48.374;10.876;2023-01-29T13:15:44;2.40;99.90
27896;DHT22;15241;48.374;10.876;2023-01-29T13:20:43;2.60;99.90
27896;DHT22;15241;48.374;10.876;2023-01-29T13:25:44;2.70;99.90
27896;DHT22;15241;48.374;10.876;2023-01-29T13:30:43;2.60;99.90
27896;DHT22;15241;48.374;10.876;2023-01-29T13:35:43;2.60;99.90
27896;DHT22;15241;48.374;10.876;2023-01-29T13:45:55;2.40;99.90
27896;DHT22;15241;48.374;10.876;2023-01-29T13:50:55;2.20;99.90
27896;DHT22;15241;48.374;10.876;2023-01-29T13:55:55;2.30;99.90
27896;DHT22;15241;48.374;10.876;2023-01-29T14:00:55;2.10;99.90
27896;DHT22;15241;48.374;10.876;2023-01-29T14:05:59;2.00;99.90
27896;DHT22;15241;48.374;10.876;2023-01-29T14:11:35;2.10;99.90
27896;DHT22;15241;48.374;10.876;2023-01-29T14:16:35;2.20;99.90
27896;DHT22;15241;48.374;10.876;2023-01-29T14:21:39;2.20;99.90
27896;DHT22;15241;48.374;10.876;2023-01-29T14:26:43;2.00;99.90
27896;DHT22;15241;48.374;10.876;2023-01-29T14:31:43;2.00;99.90
27896;DHT22;15241;48.374;10.876;2023-01-29T14:36:45;1.90;99.90
27896;DHT22;15241;48.374;10.876;2023-01-29T14:41:44;2.10;99.90
27896;DHT22;15241;48.374;10.876;2023-01-29T14:46:44;2.20;99.90
27896;DHT22;15241;48.374;10.876;2023-01-29T14:51:44;2.20;99.90
27896;DHT22;15241;48.374;10.876;2023-01-29T14:56:45;2.00;99.90
27896;DHT22;15241;48.374;10.876;2023-01-29T15:01:50;2.20;99.90
27896;DHT22;15241;48.374;10.876;2023-01-29T15:06:54;2.10;99.90
27896;DHT22;15241;48.374;10.876;2023-01-29T15:11:57;2.10;99.90
27896;DHT22;15241;48.374;10.876;2023-01-29T15:17:05;2.10;99.90
27896;DHT22;15241;48.374;10.876;2023-01-29T15:22:10;2.20;99.90
27896;DHT22;15241;48.374;10.876;2023-01-29T15:27:13;2.10;99.90
27896;DHT22;15241;48.374;10.876;2023-01-29T15:37:30;2.10;99.90
27896;DHT22;15241;48.374;10.876;2023-01-29T15:42:42;2.00;99.90
27896;DHT22;15241;48.374;10.876;2023-01-29T15:47:41;1.80;99.90
27896;DHT22;15241;48.374;10.876;2023-01-29T15:52:41;1.90;99.90
27896;DHT22;15241;48.374;10.876;2023-01-29T15:57:41;1.80;99.90
27896;DHT22;15241;48.374;10.876;2023-01-29T16:02:41;1.80;99.90
27896;DHT22;15241;48.374;10.876;2023-01-29T16:07:40;1.90;99.90
27896;DHT22;15241;48.374;10.876;2023-01-29T16:12:40;1.90;99.90
27896;DHT22;15241;48.374;10.876;2023-01-29T16:17:40;1.90;99.90
27896;DHT22;15241;48.374;10.876;2023-01-29T16:22:40;1.90;99.90
27896;DHT22;15241;48.374;10.876;2023-01-29T16:27:40;1.80;99.90
27896;DHT22;15241;48.374;10.876;2023-01-29T16:32:40;1.70;99.90
27896;DHT22;15241;48.374;10.876;2023-01-29T16:37:39;1.70;99.90
27896;DHT22;15241;48.374;10.876;2023-01-29T16:42:38;1.80;99.90
27896;DHT22;15241;48.374;10.876;2023-01-29T16:47:38;1.80;99.90
27896;DHT22;15241;48.374;10.876;2023-01-29T16:52:37;1.70;99.90
27896;DHT22;15241;48.374;10.876;2023-01-29T16:57:38;1.60;99.90
27896;DHT22;15241;48.374;10.876;2023-01-29T17:02:38;1.40;99.90
27896;DHT22;15241;48.374;10.876;2023-01-29T17:07:38;1.50;99.90
27896;DHT22;15241;48.374;10.876;2023-01-29T17:12:37;1.40;99.90
27896;DHT22;15241;48.374;10.876;2023-01-29T17:17:36;1.30;99.90
27896;DHT22;15241;48.374;10.876;2023-01-29T17:22:35;1.40;99.90
27896;DHT22;15241;48.374;10.876;2023-01-29T17:27:34;1.40;99.90
27896;DHT22;15241;48.374;10.876;2023-01-29T17:32:33;1.30;99.90
27896;DHT22;15241;48.374;10.876;2023-01-29T17:37:32;1.10;99.90
27896;DHT22;15241;48.374;10.876;2023-01-29T17:42:31;1.00;99.90
27896;DHT22;15241;48.374;10.876;2023-01-29T17:47:29;1.10;99.90
27896;DHT22;15241;48.374;10.876;2023-01-29T17:52:28;1.20;99.90
27896;DHT22;15241;48.374;10.876;2023-01-29T17:57:27;1.10;99.90
27896;DHT22;15241;48.374;10.876;2023-01-29T18:02:27;1.10;99.90
27896;DHT22;15241;48.374;10.876;2023-01-29T18:07:26;1.20;99.90
27896;DHT22;15241;48.374;10.876;2023-01-29T18:12:25;1.20;99.90
27896;DHT22;15241;48.374;10.876;2023-01-29T18:17:24;1.10;99.90
27896;DHT22;15241;48.374;10.876;2023-01-29T18:22:23;1.10;99.90
27896;DHT22;15241;48.374;10.876;2023-01-29T18:27:22;1.10;99.90
27896;DHT22;15241;48.374;10.876;2023-01-29T18:32:21;1.00;99.90
27896;DHT22;15241;48.374;10.876;2023-01-29T18:37:20;1.00;99.90
27896;DHT22;15241;48.374;10.876;2023-01-29T18:42:19;1.10;99.90
27896;DHT22;15241;48.374;10.876;2023-01-29T18:47:18;1.20;99.90
27896;DHT22;15241;48.374;10.876;2023-01-29T18:52:17;1.10;99.90
27896;DHT22;15241;48.374;10.876;2023-01-29T18:57:16;1.00;99.90
27896;DHT22;15241;48.374;10.876;2023-01-29T19:02:16;0.90;99.90
27896;DHT22;15241;48.374;10.876;2023-01-29T19:07:15;0.80;99.90
27896;DHT22;15241;48.374;10.876;2023-01-29T19:12:14;0.80;99.90
27896;DHT22;15241;48.374;10.876;2023-01-29T19:17:13;0.80;99.90
27896;DHT22;15241;48.374;10.876;2023-01-29T19:22:12;0.90;99.90
27896;DHT22;15241;48.374;10.876;2023-01-29T19:27:10;0.80;99.90
27896;DHT22;15241;48.374;10.876;2023-01-29T19:32:09;0.80;99.90
27896;DHT22;15241;48.374;10.876;2023-01-29T19:37:08;0.70;99.90
27896;DHT22;15241;48.374;10.876;2023-01-29T19:42:07;0.80;99.90
27896;DHT22;15241;48.374;10.876;2023-01-29T19:47:06;0.90;99.90
27896;DHT22;15241;48.374;10.876;2023-01-29T19:52:05;0.70;99.90
27896;DHT22;15241;48.374;10.876;2023-01-29T19:57:04;0.70;99.90
27896;DHT22;15241;48.374;10.876;2023-01-29T20:02:03;0.60;99.90
27896;DHT22;15241;48.374;10.876;2023-01-29T20:07:02;0.60;99.90
27896;DHT22;15241;48.374;10.876;2023-01-29T20:12:01;0.60;99.90
27896;DHT22;15241;48.374;10.876;2023-01-29T20:17:00;0.70;99.90
27896;DHT22;15241;48.374;10.876;2023-01-29T20:21:59;0.70;99.90
27896;DHT22;15241;48.374;10.876;2023-01-29T20:26:58;0.70;99.90
27896;DHT22;15241;48.374;10.876;2023-01-29T20:31:58;0.60;99.90
27896;DHT22;15241;48.374;10.876;2023-01-29T20:36:56;0.60;99.90
27896;DHT22;15241;48.374;10.876;2023-01-29T20:41:55;0.60;99.90
27896;DHT22;15241;48.374;10.876;2023-01-29T20:46:54;0.60;99.90
27896;DHT22;15241;48.374;10.876;2023-01-29T20:51:53;0.60;99.90
27896;DHT22;15241;48.374;10.876;2023-01-29T20:56:52;0.60;99.90
27896;DHT22;15241;48.374;10.876;2023-01-29T21:01:51;0.50;99.90
27896;DHT22;15241;48.374;10.876;2023-01-29T21:06:50;0.50;99.90
27896;DHT22;15241;48.374;10.876;2023-01-29T21:11:49;0.50;99.90
27896;DHT22;15241;48.374;10.876;2023-01-29T21:16:48;0.50;99.90
27896;DHT22;15241;48.374;10.876;2023-01-29T21:21:47;0.60;99.90
27896;DHT22;15241;48.374;10.876;2023-01-29T21:26:46;0.60;99.90
27896;DHT22;15241;48.374;10.876;2023-01-29T21:31:45;0.50;99.90
27896;DHT22;15241;48.374;10.876;2023-01-29T21:36:44;0.40;99.90
27896;DHT22;15241;48.374;10.876;2023-01-29T21:41:43;0.40;99.90
27896;DHT22;15241;48.374;10.876;2023-01-29T21:46:42;0.30;99.90
27896;DHT22;15241;48.374;10.876;2023-01-29T21:51:40;0.20;99.90
27896;DHT22;15241;48.374;10.876;2023-01-29T21:56:39;0.20;99.90
27896;DHT22;15241;48.374;10.876;2023-01-29T22:01:38;0.10;99.90
27896;DHT22;15241;48.374;10.876;2023-01-29T22:06:37;0.00;99.90
27896;DHT22;15241;48.374;10.876;2023-01-29T22:11:36;0.00;99.90
27896;DHT22;15241;48.374;10.876;2023-01-29T22:16:35;-0.10;99.90
27896;DHT22;15241;48.374;10.876;2023-01-29T22:21:34;0.00;99.90
27896;DHT22;15241;48.374;10.876;2023-01-29T22:26:33;-0.20;99.90
27896;DHT22;15241;48.374;10.876;2023-01-29T22:31:32;-0.30;99.90
27896;DHT22;15241;48.374;10.876;2023-01-29T22:36:31;-0.20;99.90
27896;DHT22;15241;48.374;10.876;2023-01-29T22:41:30;-0.30;99.90
27896;DHT22;15241;48.374;10.876;2023-01-29T22:46:28;-0.30;99.90
27896;DHT22;15241;48.374;10.876;2023-01-29T22:51:27;-0.30;99.90
27896;DHT22;15241;48.374;10.876;2023-01-29T22:56:27;-0.40;99.90
27896;DHT22;15241;48.374;10.876;2023-01-29T23:01:28;-0.40;99.90
27896;DHT22;15241;48.374;10.876;2023-01-29T23:06:27;-0.40;99.90
27896;DHT22;15241;48.374;10.876;2023-01-29T23:11:26;-0.50;99.90
27896;DHT22;15241;48.374;10.876;2023-01-29T23:16:25;-0.50;99.90
27896;DHT22;15241;48.374;10.876;2023-01-29T23:21:25;-0.50;99.90
27896;DHT22;15241;48.374;10.876;2023-01-29T23:26:25;-0.50;99.90
27896;DHT22;15241;48.374;10.876;2023-01-29T23:31:24;-0.50;99.90
27896;DHT22;15241;48.374;10.876;2023-01-29T23:36:23;-0.50;99.90
27896;DHT22;15241;48.374;10.876;2023-01-29T23:41:22;-0.60;99.90
27896;DHT22;15241;48.374;10.876;2023-01-29T23:46:21;-0.50;99.90
27896;DHT22;15241;48.374;10.876;2023-01-29T23:51:19;-0.50;99.90
27896;DHT22;15241;48.374;10.876;2023-01-29T23:56:19;-0.50;99.90
